Time;durP1;ratioP1;P1;durP2;ratioP2;P2;SDS_P1;SDS_P2;PMS_P1;PMS_P2;Temp;Humidity;BMP_temperature;BMP_pressure;BME280_temperature;BME280_humidity;BME280_pressure;Samples;Min_cycle;Max_cycle;Signal;HPM_P1;HPM_P2
2023/10/24 00:00:09;;;;;;;;;9.00;8.00;;;;;14.07;100.00;99985.63;4966800;28;28843;-75
2023/10/24 00:02:34;;;;;;;;;13.33;9.33;;;;;14.07;100.00;99969.09;4958400;28;28416;-75
2023/10/24 00:04:59;;;;;;;;;8.67;7.33;;;;;14.11;100.00;99977.69;4950297;28;30838;-75
2023/10/24 00:07:25;;;;;;;;;11.00;7.67;;;;;14.10;100.00;99984.28;4967672;28;29160;-74
2023/10/24 00:09:50;;;;;;;;;9.67;8.67;;;;;14.11;100.00;99977.69;4967301;28;28619;-74
2023/10/24 00:12:16;;;;;;;;;11.00;9.00;;;;;14.14;100.00;99979.94;4966962;28;28945;-73
2023/10/24 00:14:42;;;;;;;;;14.67;11.00;;;;;14.16;100.00;99977.78;4967980;28;28497;-74
2023/10/24 00:17:08;;;;;;;;;11.67;11.67;;;;;14.11;100.00;99972.16;4950045;28;29570;-69
2023/10/24 00:19:33;;;;;;;;;9.00;9.00;;;;;14.16;100.00;99960.38;4964102;28;28927;-68
2023/10/24 00:21:58;;;;;;;;;13.33;10.67;;;;;14.15;100.00;99962.31;4967840;28;28664;-67
2023/10/24 00:24:25;;;;;;;;;6.00;4.00;;;;;14.15;100.00;99945.75;4952543;28;30076;-68
2023/10/24 00:26:51;;;;;;;;;8.67;8.67;;;;;14.11;100.00;99947.34;4970345;28;28424;-68
2023/10/24 00:29:16;;;;;;;;;13.00;12.00;;;;;14.12;100.00;99949.03;4959971;28;28737;-68
2023/10/24 00:31:41;;;;;;;;;8.67;8.00;;;;;14.19;100.00;99954.34;4966667;28;28807;-69
2023/10/24 00:34:12;;;;;;;;;10.00;9.00;;;;;14.15;100.00;99947.66;4950326;28;29624;-68
2023/10/24 00:36:39;;;;;;;;;12.00;9.67;;;;;14.24;100.00;99958.03;4967597;28;28665;-67
2023/10/24 00:39:05;;;;;;;;;10.00;9.00;;;;;14.34;100.00;99962.03;4936103;28;28524;-68
2023/10/24 00:41:30;;;;;;;;;9.67;7.33;;;;;14.31;100.00;99955.06;4951730;28;29096;-68
2023/10/24 00:43:56;;;;;;;;;10.00;10.00;;;;;14.35;100.00;99966.47;4969817;28;28451;-67
2023/10/24 00:46:21;;;;;;;;;10.00;10.00;;;;;14.36;100.00;99962.63;4954777;28;28446;-68
2023/10/24 00:48:47;;;;;;;;;10.00;8.00;;;;;14.42;100.00;99965.19;4955580;28;28469;-67
2023/10/24 00:51:13;;;;;;;;;9.67;9.67;;;;;14.44;100.00;99951.13;4948692;28;30736;-68
2023/10/24 00:53:39;;;;;;;;;9.00;9.00;;;;;14.44;100.00;99956.66;4948535;28;28729;-74
2023/10/24 00:56:05;;;;;;;;;8.67;8.00;;;;;14.43;100.00;99961.34;4966345;28;29166;-68
2023/10/24 00:58:31;;;;;;;;;11.33;8.67;;;;;14.42;100.00;99964.38;4951039;28;28906;-69
2023/10/24 01:00:59;;;;;;;;;11.33;11.33;;;;;14.39;100.00;99953.84;4967052;28;28680;-69
2023/10/24 01:03:26;;;;;;;;;12.00;9.33;;;;;14.42;100.00;99959.66;4952680;28;31365;-67
2023/10/24 01:05:52;;;;;;;;;15.67;12.33;;;;;14.40;100.00;99959.09;4964107;28;28932;-74
2023/10/24 01:08:17;;;;;;;;;17.00;12.67;;;;;14.36;100.00;99937.78;4969236;28;28841;-68
2023/10/24 01:10:43;;;;;;;;;11.00;11.00;;;;;14.41;100.00;99927.66;4968578;28;28751;-65
2023/10/24 01:13:08;;;;;;;;;14.00;12.67;;;;;14.47;100.00;99936.84;4951720;28;28804;-67
2023/10/24 01:15:34;;;;;;;;;13.67;10.67;;;;;14.48;100.00;99939.34;4948921;28;28443;-67
2023/10/24 01:17:59;;;;;;;;;16.67;12.67;;;;;14.48;100.00;99942.09;4963533;28;28447;-67
2023/10/24 01:20:24;;;;;;;;;16.33;12.00;;;;;14.49;100.00;99937.44;4949420;28;30299;-66
2023/10/24 01:22:50;;;;;;;;;14.33;12.33;;;;;14.56;100.00;99951.84;4951214;28;29573;-66
2023/10/24 01:25:15;;;;;;;;;12.33;8.33;;;;;14.50;100.00;99944.59;4953538;28;28571;-67
2023/10/24 01:27:43;;;;;;;;;17.33;14.00;;;;;14.54;100.00;99950.47;4948818;28;28928;-67
2023/10/24 01:30:10;;;;;;;;;12.33;12.00;;;;;14.46;100.00;99944.28;4968350;28;28848;-69
2023/10/24 01:32:35;;;;;;;;;12.00;10.00;;;;;14.47;100.00;99945.94;4949028;28;28556;-68
2023/10/24 01:35:01;;;;;;;;;10.67;10.67;;;;;14.53;100.00;99957.88;4967646;28;28543;-74
2023/10/24 01:37:26;;;;;;;;;14.33;10.00;;;;;14.55;100.00;99949.34;4969737;28;28478;-75
2023/10/24 01:39:52;;;;;;;;;13.33;11.33;;;;;14.54;100.00;99954.03;4969608;28;28769;-66
2023/10/24 01:42:17;;;;;;;;;13.00;11.67;;;;;14.57;100.00;99952.72;4970118;28;28439;-74
2023/10/24 01:44:42;;;;;;;;;15.00;13.33;;;;;14.57;100.00;99956.28;4965308;28;28413;-76
2023/10/24 01:47:08;;;;;;;;;11.67;10.67;;;;;14.56;100.00;99949.09;4952960;28;28462;-73
2023/10/24 01:49:33;;;;;;;;;13.00;12.00;;;;;14.59;100.00;99942.25;4952404;28;28737;-74
2023/10/24 01:51:59;;;;;;;;;14.00;11.67;;;;;14.56;100.00;99935.28;4947637;28;28688;-74
2023/10/24 01:54:24;;;;;;;;;13.67;13.67;;;;;14.58;100.00;99935.91;4969962;28;28482;-73
2023/10/24 01:56:49;;;;;;;;;16.67;11.00;;;;;14.60;100.00;99944.75;4971044;28;28466;-74
2023/10/24 01:59:15;;;;;;;;;12.33;11.00;;;;;14.59;100.00;99939.47;4958275;28;28339;-74
2023/10/24 02:01:41;;;;;;;;;24.00;16.33;;;;;14.62;100.00;99939.00;4969220;28;28585;-73
2023/10/24 02:04:07;;;;;;;;;15.33;15.33;;;;;14.62;100.00;99941.75;4955194;28;29717;-75
2023/10/24 02:06:32;;;;;;;;;12.33;11.00;;;;;14.69;100.00;99936.06;4948539;28;28513;-74
2023/10/24 02:08:57;;;;;;;;;14.67;12.67;;;;;14.71;100.00;99933.88;4951371;28;29219;-73
2023/10/24 02:11:23;;;;;;;;;17.67;11.00;;;;;14.68;100.00;99923.34;4969039;28;28510;-73
2023/10/24 02:13:48;;;;;;;;;16.67;15.67;;;;;14.74;100.00;99930.59;4963853;28;28794;-74
2023/10/24 02:16:13;;;;;;;;;12.00;12.00;;;;;14.76;100.00;99933.91;4966154;28;28915;-75
2023/10/24 02:18:39;;;;;;;;;10.00;10.00;;;;;14.77;100.00;99921.81;4968818;28;28577;-73
2023/10/24 02:21:08;;;;;;;;;12.67;10.00;;;;;14.89;100.00;99916.16;4968671;28;29312;-74
2023/10/24 02:23:37;;;;;;;;;10.67;9.33;;;;;14.86;100.00;99920.25;4968687;28;28517;-76
2023/10/24 02:26:03;;;;;;;;;13.33;13.00;;;;;14.83;100.00;99905.06;4969379;28;28808;-73
2023/10/24 02:28:28;;;;;;;;;14.67;12.67;;;;;14.87;100.00;99913.66;4947273;28;30848;-74
2023/10/24 02:30:53;;;;;;;;;12.00;10.67;;;;;14.92;100.00;99923.91;4957762;28;29479;-74
2023/10/24 02:33:19;;;;;;;;;9.67;9.67;;;;;14.86;100.00;99920.25;4953176;28;28606;-73
2023/10/24 02:35:44;;;;;;;;;14.00;14.00;;;;;14.91;100.00;99925.84;4968524;28;28411;-73
2023/10/24 02:38:10;;;;;;;;;12.00;8.67;;;;;14.90;100.00;99921.41;4949229;28;28733;-72
2023/10/24 02:40:35;;;;;;;;;12.00;11.00;;;;;14.97;100.00;99919.28;4948075;28;28483;-75
2023/10/24 02:43:00;;;;;;;;;14.33;11.33;;;;;14.97;100.00;99922.06;4966528;28;28364;-72
2023/10/24 02:45:26;;;;;;;;;13.67;11.00;;;;;15.00;100.00;99920.72;4966949;28;28768;-74
2023/10/24 02:47:52;;;;;;;;;12.67;10.00;;;;;15.02;100.00;99918.50;4956537;28;28894;-72
2023/10/24 02:50:17;;;;;;;;;13.33;13.33;;;;;15.02;100.00;99918.50;4951307;28;28469;-74
2023/10/24 02:52:42;;;;;;;;;14.33;13.33;;;;;15.07;100.00;99915.78;4934433;28;28579;-68
2023/10/24 02:55:08;;;;;;;;;12.67;8.33;;;;;15.06;100.00;99922.44;4968253;28;28511;-66
2023/10/24 02:57:34;;;;;;;;;17.67;11.67;;;;;15.07;100.00;99914.97;4968323;28;28935;-73
2023/10/24 03:00:00;;;;;;;;;13.67;13.67;;;;;15.07;100.00;99907.50;4950358;28;28812;-73
2023/10/24 03:02:25;;;;;;;;;17.33;13.33;;;;;15.11;100.00;99916.94;4964888;28;28872;-73
2023/10/24 03:04:50;;;;;;;;;14.00;12.67;;;;;15.11;100.00;99913.38;4968668;28;28450;-74
2023/10/24 03:07:16;;;;;;;;;11.33;11.33;;;;;15.11;100.00;99905.91;4955647;28;28519;-72
2023/10/24 03:09:42;;;;;;;;;16.67;13.33;;;;;15.08;100.00;99900.91;4967654;28;28673;-72
2023/10/24 03:12:12;;;;;;;;;16.33;13.33;;;;;15.16;100.00;99899.59;4960707;28;28571;-72
2023/10/24 03:14:38;;;;;;;;;13.67;13.67;;;;;15.15;100.00;99909.00;4958443;28;28638;-74
2023/10/24 03:17:03;;;;;;;;;16.67;16.67;;;;;15.16;100.00;99902.34;4961009;28;29304;-74
2023/10/24 03:19:32;;;;;;;;;19.33;17.67;;;;;15.15;100.00;99904.28;4959726;28;30162;-73
2023/10/24 03:21:57;;;;;;;;;20.33;17.33;;;;;15.16;100.00;99914.25;4971735;28;28573;-74
2023/10/24 03:24:22;;;;;;;;;11.33;10.00;;;;;15.16;100.00;99903.22;4951751;28;28436;-73
2023/10/24 03:26:48;;;;;;;;;17.00;15.67;;;;;15.17;100.00;99901.28;4947572;28;29475;-73
2023/10/24 03:29:13;;;;;;;;;17.67;14.33;;;;;15.19;100.00;99904.59;4966756;28;29220;-73
2023/10/24 03:31:38;;;;;;;;;21.00;18.33;;;;;15.17;100.00;99898.50;4950608;28;28597;-74
2023/10/24 03:34:03;;;;;;;;;21.67;17.00;;;;;15.22;100.00;99900.50;4967617;28;28587;-73
2023/10/24 03:36:29;;;;;;;;;14.33;13.00;;;;;15.23;100.00;99903.00;4966034;28;28503;-73
2023/10/24 03:38:54;;;;;;;;;12.00;10.67;;;;;15.24;100.00;99904.66;4967285;28;29427;-74
2023/10/24 03:41:20;;;;;;;;;14.67;13.00;;;;;15.26;100.00;99902.47;4968592;28;28484;-74
2023/10/24 03:43:48;;;;;;;;;15.33;14.33;;;;;15.25;100.00;99906.31;4967605;28;28747;-67
2023/10/24 03:46:14;;;;;;;;;18.33;13.00;;;;;15.27;100.00;99915.19;4967073;28;28790;-68
2023/10/24 03:48:41;;;;;;;;;22.00;18.00;;;;;15.25;100.00;99911.84;4950200;28;30504;-67
2023/10/24 03:51:06;;;;;;;;;11.00;10.67;;;;;15.24;100.00;99912.09;4952208;28;28759;-67
2023/10/24 03:53:31;;;;;;;;;12.33;11.67;;;;;15.27;100.00;99920.72;4953973;28;28798;-68
2023/10/24 03:56:00;;;;;;;;;9.00;8.33;;;;;15.24;100.00;99909.34;4970433;28;28633;-68
2023/10/24 04:01:36;;;;;;;;;15.00;13.33;;;;;15.25;100.00;99902.72;4956134;28;28457;-69
2023/10/24 04:04:01;;;;;;;;;15.67;13.67;;;;;15.25;100.00;99905.50;4968061;28;28852;-68
2023/10/24 04:06:27;;;;;;;;;9.67;9.33;;;;;15.14;100.00;99888.81;4969547;28;28513;-68
2023/10/24 04:08:52;;;;;;;;;11.67;11.00;;;;;15.25;100.00;99916.53;4970198;28;28450;-66
2023/10/24 04:11:18;;;;;;;;;11.33;9.33;;;;;15.23;100.00;99907.69;4963467;28;28829;-67
2023/10/24 04:13:45;;;;;;;;;6.00;6.00;;;;;15.25;100.00;99900.78;4970641;28;28394;-74
2023/10/24 04:16:10;;;;;;;;;11.67;9.67;;;;;15.21;100.00;99899.66;4970482;28;29134;-73
2023/10/24 04:18:36;;;;;;;;;13.67;11.67;;;;;15.18;100.00;99902.94;4967258;28;28336;-71
2023/10/24 04:21:01;;;;;;;;;8.67;8.67;;;;;15.10;100.00;99882.13;4945844;28;28472;-74
2023/10/24 04:23:27;;;;;;;;;10.00;8.33;;;;;15.16;100.00;99896.84;4958489;28;28455;-74
2023/10/24 04:25:52;;;;;;;;;12.33;12.33;;;;;15.21;100.00;99904.34;4967539;28;28554;-66
2023/10/24 04:28:18;;;;;;;;;10.67;9.33;;;;;15.18;100.00;99892.72;4965898;28;28504;-68
2023/10/24 04:30:43;;;;;;;;;7.33;7.33;;;;;15.14;100.00;99893.50;4969826;28;28471;-67
2023/10/24 04:33:09;;;;;;;;;8.67;8.67;;;;;15.09;100.00;99896.19;4969739;28;28534;-68
2023/10/24 04:35:42;;;;;;;;;9.33;8.33;;;;;15.16;100.00;99905.13;4945408;28;30196;-68
2023/10/24 04:38:08;;;;;;;;;8.00;6.00;;;;;15.17;100.00;99906.81;4947946;28;30051;-66
2023/10/24 04:40:37;;;;;;;;;6.33;6.33;;;;;15.11;100.00;99894.03;4946843;28;29353;-67
2023/10/24 04:43:02;;;;;;;;;8.00;8.00;;;;;15.03;100.00;99883.44;4968547;28;28474;-67
2023/10/24 04:45:29;;;;;;;;;9.67;9.00;;;;;15.04;100.00;99899.75;4969828;28;28789;-66
2023/10/24 04:47:55;;;;;;;;;14.67;12.00;;;;;15.09;100.00;99904.50;4969417;28;28947;-68
2023/10/24 04:50:20;;;;;;;;;11.00;10.00;;;;;15.06;100.00;99910.53;4965216;28;28548;-69
2023/10/24 04:52:46;;;;;;;;;13.00;11.67;;;;;15.05;100.00;99912.47;4968262;28;28791;-68
2023/10/24 04:55:11;;;;;;;;;10.00;8.67;;;;;14.99;100.00;99895.00;4969626;28;28841;-68
2023/10/24 04:57:36;;;;;;;;;16.33;15.00;;;;;14.99;100.00;99889.47;4952758;28;28805;-69
2023/10/24 05:00:03;;;;;;;;;9.33;6.00;;;;;14.98;100.00;99889.75;4961905;28;28573;-67
2023/10/24 05:02:30;;;;;;;;;0.00;0.00;;;;;14.98;100.00;99890.59;4968419;28;28432;-67
2023/10/24 05:04:55;;;;;;;;;9.67;9.33;;;;;14.99;100.00;99897.75;4953588;28;29260;-70
2023/10/24 05:07:20;;;;;;;;;8.00;8.00;;;;;15.02;100.00;99901.13;4971156;28;28398;-74
2023/10/24 05:09:46;;;;;;;;;11.00;10.33;;;;;15.08;100.00;99889.03;4958758;28;28553;-72
2023/10/24 05:12:12;;;;;;;;;11.33;10.33;;;;;15.08;100.00;99900.09;4950790;28;28534;-74
2023/10/24 05:14:37;;;;;;;;;9.33;9.33;;;;;15.11;100.00;99894.03;4970150;28;28592;-76
2023/10/24 05:17:04;;;;;;;;;11.00;10.00;;;;;15.14;100.00;99897.09;4969505;28;28492;-75
2023/10/24 05:19:30;;;;;;;;;8.00;6.67;;;;;15.09;100.00;99890.69;4971836;28;28490;-74
2023/10/24 05:21:55;;;;;;;;;11.33;8.33;;;;;15.11;100.00;99889.34;4979431;28;28940;-74
2023/10/24 05:24:20;;;;;;;;;5.33;5.33;;;;;15.08;100.00;99891.78;4979216;28;28691;-70
2023/10/24 05:26:47;;;;;;;;;6.33;6.33;;;;;14.94;100.00;99864.59;4955751;28;29705;-68
2023/10/24 05:29:12;;;;;;;;;9.33;7.67;;;;;15.02;100.00;99873.50;4970613;28;29047;-69
2023/10/24 05:31:37;;;;;;;;;6.33;3.00;;;;;15.05;100.00;99889.56;4966100;28;29133;-77
2023/10/24 05:34:03;;;;;;;;;10.00;7.33;;;;;15.02;100.00;99885.38;4965871;28;28692;-80
2023/10/24 05:36:28;;;;;;;;;2.67;2.67;;;;;15.01;100.00;99875.41;4962261;28;28524;-79
2023/10/24 05:38:55;;;;;;;;;5.00;5.00;;;;;15.02;100.00;99881.78;4971182;28;29067;-80
2023/10/24 05:41:21;;;;;;;;;4.00;4.00;;;;;14.99;100.00;99886.72;4956189;28;28523;-80
2023/10/24 05:43:46;;;;;;;;;4.00;4.00;;;;;15.00;100.00;99888.41;4965932;28;28643;-80
2023/10/24 05:46:11;;;;;;;;;8.00;5.67;;;;;15.01;100.00;99883.69;4968560;28;28629;-78
2023/10/24 05:48:39;;;;;;;;;5.33;5.33;;;;;14.99;100.00;99875.69;4965695;28;28431;-80
2023/10/24 05:51:05;;;;;;;;;7.33;6.33;;;;;14.96;100.00;99881.72;4969125;28;28525;-78
2023/10/24 05:53:30;;;;;;;;;6.67;6.33;;;;;15.02;100.00;99892.84;4965046;28;28939;-80
2023/10/24 05:55:56;;;;;;;;;5.00;5.00;;;;;14.93;100.00;99884.19;4968650;28;28925;-77
2023/10/24 05:58:23;;;;;;;;;5.00;5.00;;;;;15.03;100.00;99888.97;4976958;28;28478;-76
2023/10/24 06:00:48;;;;;;;;;7.00;7.00;;;;;14.98;100.00;99874.03;4950565;28;28583;-71
2023/10/24 06:03:13;;;;;;;;;8.00;6.33;;;;;15.05;100.00;99886.78;4970918;28;28646;-71
2023/10/24 06:05:40;;;;;;;;;8.00;8.00;;;;;15.06;100.00;99882.91;4945628;28;28865;-72
2023/10/24 06:08:05;;;;;;;;;8.67;8.67;;;;;15.06;100.00;99886.53;4965301;28;28892;-71
2023/10/24 06:10:31;;;;;;;;;7.67;5.00;;;;;15.12;100.00;99901.22;4950694;28;28949;-70
2023/10/24 06:12:56;;;;;;;;;8.67;6.33;;;;;15.13;100.00;99914.75;4964020;28;28518;-79
2023/10/24 06:15:22;;;;;;;;;6.00;6.00;;;;;15.15;100.00;99906.25;4974076;28;29043;-78
2023/10/24 06:17:47;;;;;;;;;8.33;7.33;;;;;15.17;100.00;99915.91;4974715;28;30286;-79
2023/10/24 06:20:13;;;;;;;;;5.00;5.00;;;;;15.15;100.00;99918.09;4963011;28;28513;-81
2023/10/24 06:22:38;;;;;;;;;7.67;6.00;;;;;15.10;100.00;99906.16;4960791;28;30620;-79
2023/10/24 06:25:04;;;;;;;;;6.33;6.33;;;;;15.10;100.00;99914.44;4955300;28;29765;-78
2023/10/24 06:27:29;;;;;;;;;3.67;3.67;;;;;15.14;100.00;99927.47;4979342;28;28582;-80
2023/10/24 06:29:54;;;;;;;;;7.33;5.33;;;;;15.14;100.00;99921.94;4954398;28;28563;-80
2023/10/24 06:32:20;;;;;;;;;5.00;5.00;;;;;15.14;100.00;99924.72;4971046;28;28892;-78
2023/10/24 06:34:45;;;;;;;;;6.00;4.67;;;;;15.08;100.00;99935.97;4963955;28;29610;-78
2023/10/24 06:37:10;;;;;;;;;3.33;3.33;;;;;15.03;100.00;99935.91;4970001;28;28799;-79
2023/10/24 06:39:36;;;;;;;;;7.00;7.00;;;;;14.94;100.00;99928.09;4970044;28;28429;-78
2023/10/24 06:42:01;;;;;;;;;8.00;8.00;;;;;14.77;100.00;99910.75;4966194;28;28911;-78
2023/10/24 06:44:28;;;;;;;;;9.33;5.67;;;;;14.88;100.00;99934.66;4969226;28;28837;-80
2023/10/24 06:46:53;;;;;;;;;6.00;5.00;;;;;14.85;100.00;99940.69;4961658;28;28514;-78
2023/10/24 06:49:18;;;;;;;;;8.00;8.00;;;;;14.86;100.00;99931.28;4972316;28;28845;-78
2023/10/24 06:51:44;;;;;;;;;6.67;6.67;;;;;14.85;100.00;99929.66;4974147;28;28565;-77
2023/10/24 06:54:09;;;;;;;;;9.33;8.00;;;;;14.81;100.00;99934.81;4970326;28;28521;-79
2023/10/24 06:56:35;;;;;;;;;9.33;9.00;;;;;14.79;100.00;99949.97;4983164;28;28312;-77
2023/10/24 06:59:00;;;;;;;;;8.67;7.00;;;;;14.80;100.00;99954.41;4970678;28;28425;-76
2023/10/24 07:01:26;;;;;;;;;4.33;4.33;;;;;14.73;100.00;99934.44;4972843;28;29268;-77
2023/10/24 07:03:54;;;;;;;;;8.33;7.33;;;;;14.86;100.00;99956.13;4963432;28;29721;-74
2023/10/24 07:06:19;;;;;;;;;6.33;6.00;;;;;14.93;100.00;99950.44;4962384;28;28596;-75
2023/10/24 07:08:46;;;;;;;;;7.33;7.33;;;;;14.93;100.00;99964.25;4963517;28;28528;-76
2023/10/24 07:11:12;;;;;;;;;5.67;5.00;;;;;14.83;100.00;99953.91;4949322;28;29518;-74
2023/10/24 07:13:37;;;;;;;;;5.33;5.00;;;;;14.89;100.00;99972.19;4976516;28;28711;-75
2023/10/24 07:16:16;;;;;;;;;7.00;7.00;;;;;14.89;100.00;99974.13;4965884;28;27939;-74
2023/10/24 07:18:42;;;;;;;;;9.33;7.33;;;;;14.82;100.00;99975.16;4947576;28;29065;-74
2023/10/24 07:21:08;;;;;;;;;8.33;5.00;;;;;14.74;100.00;99978.34;4934310;28;29351;-74
2023/10/24 07:23:33;;;;;;;;;11.00;8.33;;;;;14.70;100.00;99993.75;4937312;28;28657;-73
2023/10/24 07:25:59;;;;;;;;;8.67;7.33;;;;;14.67;100.00;99994.28;4960011;28;28809;-75
2023/10/24 07:28:24;;;;;;;;;7.67;7.67;;;;;14.63;100.00;100002.22;4943444;28;28488;-76
2023/10/24 07:30:51;;;;;;;;;8.00;7.00;;;;;14.58;100.00;99996.59;4964743;28;28468;-78
2023/10/24 07:33:18;;;;;;;;;9.33;7.33;;;;;14.55;100.00;99999.88;4974076;28;28506;-75
2023/10/24 07:35:46;;;;;;;;;7.67;6.33;;;;;14.54;100.00;100000.13;4961621;28;28752;-78
2023/10/24 07:38:11;;;;;;;;;7.00;7.00;;;;;14.54;100.00;100000.13;4968548;28;28604;-78
2023/10/24 07:40:37;;;;;;;;;6.00;6.00;;;;;14.56;100.00;99989.66;4970481;28;28463;-77
2023/10/24 07:43:02;;;;;;;;;7.00;7.00;;;;;14.56;100.00;99990.47;4958799;28;29254;-75
2023/10/24 07:45:28;;;;;;;;;6.00;5.33;;;;;14.54;100.00;99987.16;4964481;28;28488;-78
2023/10/24 07:47:54;;;;;;;;;6.33;4.67;;;;;14.48;100.00;99979.91;4970188;28;28476;-75
2023/10/24 07:50:19;;;;;;;;;7.67;5.00;;;;;14.59;100.00;99997.44;4970152;28;28784;-77
2023/10/24 07:52:44;;;;;;;;;5.33;5.33;;;;;14.57;100.00;99999.63;4958378;28;28546;-78
2023/10/24 07:55:10;;;;;;;;;3.67;2.67;;;;;14.57;100.00;100000.44;4959817;28;29366;-75
2023/10/24 07:57:35;;;;;;;;;6.00;6.00;;;;;14.54;100.00;100003.72;4961442;28;28979;-75
2023/10/24 08:00:00;;;;;;;;;7.33;5.00;;;;;14.57;100.00;99999.63;4981996;28;29018;-76
2023/10/24 08:02:26;;;;;;;;;5.67;5.67;;;;;14.61;100.00;99995.28;4966362;28;28970;-76
2023/10/24 08:04:51;;;;;;;;;4.33;4.00;;;;;14.64;100.00;100001.13;4967930;28;28882;-74
2023/10/24 08:07:17;;;;;;;;;3.33;3.33;;;;;14.70;100.00;100003.94;4965954;28;28447;-76
2023/10/24 08:09:42;;;;;;;;;7.67;4.00;;;;;14.73;100.00;100004.28;4949881;28;29731;-76
2023/10/24 08:12:08;;;;;;;;;5.00;4.67;;;;;14.77;100.00;99999.91;4968488;28;28561;-75
2023/10/24 08:14:34;;;;;;;;;3.67;3.67;;;;;14.76;100.00;99991.88;4970471;28;28837;-69
2023/10/24 08:16:59;;;;;;;;;6.00;4.00;;;;;14.86;100.00;99997.53;4966556;28;28966;-69
2023/10/24 08:19:24;;;;;;;;;4.00;4.00;;;;;14.91;100.00;100005.91;4942586;28;30399;-71
2023/10/24 08:21:50;;;;;;;;;5.00;4.00;;;;;14.86;100.00;100002.25;4975497;28;29513;-71
2023/10/24 08:24:16;;;;;;;;;4.00;4.00;;;;;14.87;100.00;99995.66;4958761;28;28954;-69
2023/10/24 08:26:41;;;;;;;;;4.00;4.00;;;;;14.95;100.00;100007.06;4961484;28;28516;-70
2023/10/24 08:29:06;;;;;;;;;6.00;4.00;;;;;14.94;100.00;100010.94;4953744;28;28981;-69
2023/10/24 08:31:32;;;;;;;;;4.00;4.00;;;;;14.99;100.00;100013.75;4959926;28;28541;-69
2023/10/24 08:33:57;;;;;;;;;3.00;3.00;;;;;14.91;100.00;99994.88;4947064;28;28556;-69
2023/10/24 08:36:23;;;;;;;;;3.00;3.00;;;;;15.11;100.00;100012.78;4960327;28;28952;-69
2023/10/24 08:38:48;;;;;;;;;5.00;4.33;;;;;15.14;100.00;100015.03;4963346;28;28521;-69
2023/10/24 08:41:14;;;;;;;;;3.67;3.67;;;;;15.20;100.00;100019.53;4966463;28;28537;-68
2023/10/24 08:43:40;;;;;;;;;6.00;4.00;;;;;15.24;100.00;100022.59;4967453;28;28560;-68
2023/10/24 08:46:05;;;;;;;;;5.67;4.00;;;;;15.32;100.00;100028.50;4951763;28;28589;-69
2023/10/24 08:48:34;;;;;;;;;3.67;3.00;;;;;15.40;100.00;100020.84;4951410;28;29126;-69
2023/10/24 08:51:00;;;;;;;;;2.00;2.00;;;;;15.45;100.00;100019.00;4970856;28;28967;-70
2023/10/24 08:53:26;;;;;;;;;2.67;1.00;;;;;15.51;100.00;100023.47;4961184;28;28662;-69
2023/10/24 08:55:52;;;;;;;;;2.00;2.00;;;;;15.78;100.00;100013.53;4955467;28;28590;-70
2023/10/24 08:58:19;;;;;;;;;1.33;1.33;;;;;16.94;100.00;100016.63;4965861;28;28992;-69
2023/10/24 09:00:46;;;;;;;;;3.75;2.75;;;;;18.22;100.00;100018.06;4954130;28;29549;-69
2023/10/24 09:03:13;;;;;;;;;3.25;1.50;;;;;19.57;100.00;100018.25;4958681;28;28647;-69
2023/10/24 09:05:39;;;;;;;;;2.25;2.25;;;;;20.84;100.00;100022.31;4940456;28;28515;-70
2023/10/24 09:08:04;;;;;;;;;2.67;1.33;;;;;21.92;100.00;100023.69;4956491;28;28716;-70
2023/10/24 09:10:31;;;;;;;;;3.67;1.67;;;;;22.89;100.00;100031.56;4957550;28;28762;-70
2023/10/24 09:12:57;;;;;;;;;3.00;3.00;;;;;23.83;100.00;100025.69;4957083;28;28545;-71
2023/10/24 09:15:22;;;;;;;;;3.50;2.50;;;;;24.75;100.00;100029.03;4966363;28;28500;-74
2023/10/24 09:17:48;;;;;;;;;3.00;3.00;;;;;25.54;100.00;100027.34;4966564;28;28522;-69
2023/10/24 09:20:18;;;;;;;;;3.00;2.00;;;;;26.23;100.00;100028.56;4963736;28;28775;-69
2023/10/24 09:22:43;;;;;;;;;1.60;1.00;;;;;26.83;100.00;100028.78;4963099;28;28732;-75
2023/10/24 09:25:09;;;;;;;;;2.00;2.00;;;;;27.20;100.00;100037.56;4949057;28;28626;-71
2023/10/24 09:27:34;;;;;;;;;2.75;1.50;;;;;27.54;100.00;100035.72;4950183;28;30263;-77
2023/10/24 09:30:13;;;;;;;;;2.00;0.75;;;;;27.97;100.00;100033.81;4971133;28;28498;-77
2023/10/24 09:32:42;;;;;;;;;1.80;1.00;;;;;28.18;100.00;100031.78;4976102;28;28519;-77
2023/10/24 09:35:08;;;;;;;;;2.00;2.00;;;;;28.53;100.00;100036.25;4961035;28;28873;-77
2023/10/24 09:37:34;;;;;;;;;1.00;1.00;;;;;28.87;100.00;100023.78;4970829;28;28977;-76
2023/10/24 09:40:01;;;;;;;;;1.75;1.75;;;;;29.15;100.00;100027.94;4967747;28;28755;-77
2023/10/24 09:42:28;;;;;;;;;2.00;2.00;;;;;29.33;100.00;100025.72;4971749;28;29015;-77
2023/10/24 09:44:56;;;;;;;;;2.80;0.40;;;;;29.47;100.00;100028.19;4951214;28;28907;-76
2023/10/24 09:47:23;;;;;;;;;6.20;5.20;;;;;29.59;100.00;100031.78;4976863;28;28709;-76
2023/10/24 09:49:56;;;;;;;;;1.00;1.00;;;;;29.73;100.00;100025.78;4964285;28;29015;-75
2023/10/24 09:52:27;;;;;;;;;1.20;1.00;;;;;30.08;100.00;100019.56;4959826;28;28724;-77
2023/10/24 09:54:53;;;;;;;;;2.20;1.00;;;;;30.19;98.06;100019.88;4963535;28;28611;-78
2023/10/24 09:57:20;;;;;;;;;1.00;1.00;;;;;30.04;95.15;100006.53;4963120;28;28790;-78
2023/10/24 09:59:47;;;;;;;;;0.00;0.00;;;;;30.17;90.09;100015.78;4961997;28;28652;-78
2023/10/24 10:02:14;;;;;;;;;2.80;0.00;;;;;29.96;92.80;100004.66;4968925;28;28715;-76
2023/10/24 10:04:40;;;;;;;;;0.00;0.00;;;;;30.18;89.91;100017.41;4968057;28;28843;-76
2023/10/24 10:07:09;;;;;;;;;1.25;1.00;;;;;30.16;85.58;100012.13;4963529;28;28519;-76
2023/10/24 10:09:38;;;;;;;;;0.60;0.60;;;;;30.09;84.73;100017.56;4958993;28;28550;-75
2023/10/24 10:12:07;;;;;;;;;3.40;1.00;;;;;29.95;84.53;100008.69;4957453;28;28518;-77
2023/10/24 10:14:48;;;;;;;;;2.80;0.60;;;;;30.00;85.80;100023.38;4977210;28;29442;-76
2023/10/24 10:17:23;;;;;;;;;1.80;1.80;;;;;29.89;83.59;100022.22;4963175;28;29191;-77
2023/10/24 10:20:45;;;;;;;;;0.40;0.40;;;;;29.71;85.80;100019.66;4958974;28;28636;-77
2023/10/24 10:23:19;;;;;;;;;2.80;0.20;;;;;29.51;81.74;100020.66;4894778;28;28596;-77
2023/10/24 10:25:50;;;;;;;;;0.00;0.00;;;;;29.21;82.83;100020.91;4949407;28;28810;-78
2023/10/24 10:28:31;;;;;;;;;2.40;0.20;;;;;28.83;82.29;100024.81;4961835;28;28925;-78
2023/10/24 10:31:44;;;;;;;;;1.00;1.00;;;;;28.54;83.62;100020.97;4945531;28;28663;-72
2023/10/24 10:34:09;;;;;;;;;1.00;1.00;;;;;28.23;81.11;100022.28;4952961;28;28758;-73
2023/10/24 10:36:39;;;;;;;;;2.50;0.25;;;;;27.80;82.20;100034.72;4953985;28;29580;-71
2023/10/24 10:39:10;;;;;;;;;0.00;0.00;;;;;27.43;80.92;100028.88;4956440;28;28942;-73
2023/10/24 10:41:36;;;;;;;;;1.00;1.00;;;;;26.88;81.34;100011.69;4947388;28;29772;-72
2023/10/24 10:44:05;;;;;;;;;4.00;1.60;;;;;26.56;82.91;100019.56;4955817;28;28991;-70
2023/10/24 10:46:32;;;;;;;;;1.00;1.00;;;;;26.14;82.17;100005.25;4978245;28;28591;-73
2023/10/24 10:49:03;;;;;;;;;1.00;0.60;;;;;25.97;87.29;100025.72;4945967;28;28911;-73
2023/10/24 10:51:31;;;;;;;;;0.00;0.00;;;;;25.75;87.59;100011.81;4953209;28;28753;-72
2023/10/24 10:54:26;;;;;;;;;2.00;0.60;;;;;25.46;88.60;100005.69;4953272;28;28572;-70
2023/10/24 10:56:51;;;;;;;;;2.00;1.00;;;;;25.23;91.68;100002.16;4961250;28;28903;-74
2023/10/24 10:59:37;;;;;;;;;1.00;1.00;;;;;25.10;91.44;100003.91;4951775;28;28502;-74
2023/10/24 11:02:20;;;;;;;;;1.00;1.00;;;;;24.92;91.56;100003.03;4958353;28;28607;-70
2023/10/24 11:04:46;;;;;;;;;0.00;0.00;;;;;24.58;91.98;100000.84;4963030;28;28407;-73
2023/10/24 11:07:11;;;;;;;;;0.75;0.75;;;;;24.35;92.22;100006.50;4966093;28;28689;-73
2023/10/24 11:09:38;;;;;;;;;0.00;0.00;;;;;23.95;91.46;99997.97;4955906;28;28877;-73
2023/10/24 11:12:19;;;;;;;;;2.00;1.40;;;;;23.51;95.91;100013.53;4946368;28;29841;-72
2023/10/24 11:15:03;;;;;;;;;1.00;1.00;;;;;23.21;96.58;100016.66;4963414;28;28633;-72
2023/10/24 11:17:29;;;;;;;;;0.00;0.00;;;;;22.85;95.55;100011.75;4954674;28;28578;-74
2023/10/24 11:19:57;;;;;;;;;0.80;0.00;;;;;22.47;97.87;100000.75;4957847;28;28404;-74